sensor_id;sensor_type;location;lat;lon;timestamp;P1;durP1;ratioP1;P2;durP2;ratioP2
61036;SDS011;57313;47.040;15.498;2022-09-23T00:00:46;6.25;;;2.63;;
61036;SDS011;57313;47.040;15.498;2022-09-23T00:03:15;6.97;;;2.60;;
61036;SDS011;57313;47.040;15.498;2022-09-23T00:05:43;7.47;;;2.53;;
61036;SDS011;57313;47.040;15.498;2022-09-23T00:08:10;8.63;;;2.67;;
61036;SDS011;57313;47.040;15.498;2022-09-23T00:10:40;9.02;;;2.58;;
61036;SDS011;57313;47.040;15.498;2022-09-23T00:13:09;8.38;;;2.65;;
61036;SDS011;57313;47.040;15.498;2022-09-23T00:15:37;8.32;;;3.10;;
61036;SDS011;57313;47.040;15.498;2022-09-23T00:18:04;5.82;;;2.35;;
61036;SDS011;57313;47.040;15.498;2022-09-23T00:20:31;7.80;;;2.60;;
61036;SDS011;57313;47.040;15.498;2022-09-23T00:23:00;8.07;;;2.85;;
61036;SDS011;57313;47.040;15.498;2022-09-23T00:25:28;6.95;;;2.45;;
61036;SDS011;57313;47.040;15.498;2022-09-23T00:27:56;7.80;;;2.78;;
61036;SDS011;57313;47.040;15.498;2022-09-23T00:30:27;9.02;;;2.90;;
61036;SDS011;57313;47.040;15.498;2022-09-23T00:32:54;6.60;;;2.65;;
61036;SDS011;57313;47.040;15.498;2022-09-23T00:35:21;7.95;;;2.65;;
61036;SDS011;57313;47.040;15.498;2022-09-23T00:37:49;5.85;;;2.17;;
61036;SDS011;57313;47.040;15.498;2022-09-23T00:40:17;8.30;;;2.78;;
61036;SDS011;57313;47.040;15.498;2022-09-23T00:42:45;8.60;;;2.75;;
61036;SDS011;57313;47.040;15.498;2022-09-23T00:45:13;7.70;;;2.85;;
61036;SDS011;57313;47.040;15.498;2022-09-23T00:47:45;7.05;;;2.60;;
61036;SDS011;57313;47.040;15.498;2022-09-23T00:50:19;6.88;;;2.40;;
61036;SDS011;57313;47.040;15.498;2022-09-23T00:52:52;8.65;;;2.50;;
61036;SDS011;57313;47.040;15.498;2022-09-23T00:55:22;6.65;;;2.47;;
61036;SDS011;57313;47.040;15.498;2022-09-23T00:57:54;7.57;;;2.55;;
61036;SDS011;57313;47.040;15.498;2022-09-23T01:00:25;6.47;;;2.25;;
61036;SDS011;57313;47.040;15.498;2022-09-23T01:02:54;8.63;;;3.03;;
61036;SDS011;57313;47.040;15.498;2022-09-23T01:05:22;6.05;;;2.20;;
61036;SDS011;57313;47.040;15.498;2022-09-23T01:07:50;8.10;;;2.53;;
61036;SDS011;57313;47.040;15.498;2022-09-23T01:10:19;6.75;;;2.55;;
61036;SDS011;57313;47.040;15.498;2022-09-23T01:12:54;5.80;;;2.40;;
61036;SDS011;57313;47.040;15.498;2022-09-23T01:15:34;5.53;;;2.30;;
61036;SDS011;57313;47.040;15.498;2022-09-23T01:18:12;7.45;;;2.30;;
61036;SDS011;57313;47.040;15.498;2022-09-23T01:20:56;5.50;;;2.15;;
61036;SDS011;57313;47.040;15.498;2022-09-23T01:23:46;6.65;;;2.60;;
61036;SDS011;57313;47.040;15.498;2022-09-23T01:26:51;6.85;;;2.72;;
61036;SDS011;57313;47.040;15.498;2022-09-23T01:29:41;6.30;;;2.33;;
61036;SDS011;57313;47.040;15.498;2022-09-23T01:32:34;5.15;;;2.05;;
61036;SDS011;57313;47.040;15.498;2022-09-23T01:35:09;5.70;;;2.42;;
61036;SDS011;57313;47.040;15.498;2022-09-23T01:37:45;6.82;;;2.50;;
61036;SDS011;57313;47.040;15.498;2022-09-23T01:40:18;6.20;;;2.28;;
61036;SDS011;57313;47.040;15.498;2022-09-23T01:42:50;8.02;;;2.47;;
61036;SDS011;57313;47.040;15.498;2022-09-23T01:45:21;10.60;;;2.70;;
61036;SDS011;57313;47.040;15.498;2022-09-23T01:47:59;6.57;;;2.45;;
61036;SDS011;57313;47.040;15.498;2022-09-23T01:50:32;7.73;;;2.70;;
61036;SDS011;57313;47.040;15.498;2022-09-23T01:53:05;5.15;;;1.83;;
61036;SDS011;57313;47.040;15.498;2022-09-23T01:55:38;8.23;;;2.83;;
61036;SDS011;57313;47.040;15.498;2022-09-23T01:58:10;7.13;;;2.55;;
61036;SDS011;57313;47.040;15.498;2022-09-23T02:00:48;6.63;;;2.53;;
61036;SDS011;57313;47.040;15.498;2022-09-23T02:03:22;7.53;;;2.50;;
61036;SDS011;57313;47.040;15.498;2022-09-23T02:05:55;6.22;;;2.30;;
61036;SDS011;57313;47.040;15.498;2022-09-23T02:08:31;6.05;;;2.40;;
61036;SDS011;57313;47.040;15.498;2022-09-23T02:11:04;6.45;;;2.47;;
61036;SDS011;57313;47.040;15.498;2022-09-23T02:13:36;6.55;;;2.40;;
61036;SDS011;57313;47.040;15.498;2022-09-23T02:16:11;7.30;;;2.65;;
61036;SDS011;57313;47.040;15.498;2022-09-23T02:18:50;5.72;;;2.13;;
61036;SDS011;57313;47.040;15.498;2022-09-23T02:21:22;6.85;;;2.42;;
61036;SDS011;57313;47.040;15.498;2022-09-23T02:23:56;5.82;;;2.10;;
61036;SDS011;57313;47.040;15.498;2022-09-23T02:26:31;5.40;;;2.13;;
61036;SDS011;57313;47.040;15.498;2022-09-23T02:29:04;6.95;;;2.58;;
61036;SDS011;57313;47.040;15.498;2022-09-23T02:31:38;6.50;;;2.60;;
61036;SDS011;57313;47.040;15.498;2022-09-23T02:34:15;7.88;;;2.78;;
61036;SDS011;57313;47.040;15.498;2022-09-23T02:36:49;8.70;;;2.90;;
61036;SDS011;57313;47.040;15.498;2022-09-23T02:39:27;7.75;;;2.45;;
61036;SDS011;57313;47.040;15.498;2022-09-23T02:42:03;6.75;;;2.60;;
61036;SDS011;57313;47.040;15.498;2022-09-23T02:44:32;5.70;;;2.17;;
61036;SDS011;57313;47.040;15.498;2022-09-23T02:46:59;8.98;;;2.63;;
61036;SDS011;57313;47.040;15.498;2022-09-23T02:49:30;5.63;;;2.25;;
61036;SDS011;57313;47.040;15.498;2022-09-23T02:52:02;9.35;;;3.20;;
61036;SDS011;57313;47.040;15.498;2022-09-23T02:54:31;8.20;;;2.75;;
61036;SDS011;57313;47.040;15.498;2022-09-23T02:57:00;7.88;;;2.97;;
61036;SDS011;57313;47.040;15.498;2022-09-23T02:59:30;7.57;;;2.63;;
61036;SDS011;57313;47.040;15.498;2022-09-23T03:02:04;6.55;;;2.72;;
61036;SDS011;57313;47.040;15.498;2022-09-23T03:05:08;6.68;;;2.15;;
61036;SDS011;57313;47.040;15.498;2022-09-23T03:07:42;7.00;;;2.50;;
61036;SDS011;57313;47.040;15.498;2022-09-23T03:10:20;7.65;;;3.00;;
61036;SDS011;57313;47.040;15.498;2022-09-23T03:12:51;6.53;;;2.30;;
61036;SDS011;57313;47.040;15.498;2022-09-23T03:15:33;6.45;;;2.30;;
61036;SDS011;57313;47.040;15.498;2022-09-23T03:18:07;5.75;;;2.30;;
61036;SDS011;57313;47.040;15.498;2022-09-23T03:23:12;6.45;;;2.47;;
61036;SDS011;57313;47.040;15.498;2022-09-23T03:25:43;5.93;;;2.20;;
61036;SDS011;57313;47.040;15.498;2022-09-23T03:28:14;5.10;;;1.85;;
61036;SDS011;57313;47.040;15.498;2022-09-23T03:30:43;5.38;;;2.22;;
61036;SDS011;57313;47.040;15.498;2022-09-23T03:33:11;5.88;;;2.38;;
61036;SDS011;57313;47.040;15.498;2022-09-23T03:35:48;6.43;;;2.42;;
61036;SDS011;57313;47.040;15.498;2022-09-23T03:38:18;5.80;;;2.00;;
61036;SDS011;57313;47.040;15.498;2022-09-23T03:40:50;7.18;;;2.13;;
61036;SDS011;57313;47.040;15.498;2022-09-23T03:43:21;7.00;;;2.50;;
61036;SDS011;57313;47.040;15.498;2022-09-23T03:45:48;7.38;;;2.28;;
61036;SDS011;57313;47.040;15.498;2022-09-23T03:48:19;7.13;;;2.40;;
61036;SDS011;57313;47.040;15.498;2022-09-23T03:50:49;6.43;;;2.40;;
61036;SDS011;57313;47.040;15.498;2022-09-23T03:53:17;6.85;;;3.08;;
61036;SDS011;57313;47.040;15.498;2022-09-23T03:55:44;5.63;;;2.13;;
61036;SDS011;57313;47.040;15.498;2022-09-23T03:58:12;6.32;;;2.40;;
61036;SDS011;57313;47.040;15.498;2022-09-23T04:00:39;7.60;;;3.10;;
61036;SDS011;57313;47.040;15.498;2022-09-23T04:03:07;7.53;;;2.72;;
61036;SDS011;57313;47.040;15.498;2022-09-23T04:05:37;7.90;;;2.50;;
61036;SDS011;57313;47.040;15.498;2022-09-23T04:08:07;6.93;;;2.50;;
61036;SDS011;57313;47.040;15.498;2022-09-23T04:10:35;5.35;;;2.13;;
61036;SDS011;57313;47.040;15.498;2022-09-23T04:13:06;6.47;;;2.58;;
61036;SDS011;57313;47.040;15.498;2022-09-23T04:15:34;7.60;;;2.60;;
61036;SDS011;57313;47.040;15.498;2022-09-23T04:18:03;6.63;;;2.72;;
61036;SDS011;57313;47.040;15.498;2022-09-23T04:20:30;6.38;;;2.60;;
61036;SDS011;57313;47.040;15.498;2022-09-23T04:22:58;7.32;;;2.50;;
61036;SDS011;57313;47.040;15.498;2022-09-23T04:25:27;7.88;;;3.08;;
61036;SDS011;57313;47.040;15.498;2022-09-23T04:27:58;7.65;;;2.85;;
61036;SDS011;57313;47.040;15.498;2022-09-23T04:30:25;6.88;;;2.45;;
61036;SDS011;57313;47.040;15.498;2022-09-23T04:32:52;6.75;;;2.60;;
61036;SDS011;57313;47.040;15.498;2022-09-23T04:35:20;8.35;;;2.83;;
61036;SDS011;57313;47.040;15.498;2022-09-23T04:37:47;7.28;;;2.67;;
61036;SDS011;57313;47.040;15.498;2022-09-23T04:40:15;6.88;;;2.47;;
61036;SDS011;57313;47.040;15.498;2022-09-23T04:42:44;8.80;;;2.83;;
61036;SDS011;57313;47.040;15.498;2022-09-23T04:45:11;6.13;;;2.40;;
61036;SDS011;57313;47.040;15.498;2022-09-23T04:47:39;4.97;;;1.88;;
61036;SDS011;57313;47.040;15.498;2022-09-23T04:50:06;9.27;;;3.13;;
61036;SDS011;57313;47.040;15.498;2022-09-23T04:52:34;6.03;;;2.40;;
61036;SDS011;57313;47.040;15.498;2022-09-23T04:55:02;5.95;;;2.50;;
61036;SDS011;57313;47.040;15.498;2022-09-23T04:57:36;7.20;;;2.60;;
61036;SDS011;57313;47.040;15.498;2022-09-23T05:00:07;6.07;;;2.60;;
61036;SDS011;57313;47.040;15.498;2022-09-23T05:02:40;8.88;;;3.00;;
61036;SDS011;57313;47.040;15.498;2022-09-23T05:05:08;8.00;;;3.05;;
61036;SDS011;57313;47.040;15.498;2022-09-23T05:07:36;6.40;;;2.70;;
61036;SDS011;57313;47.040;15.498;2022-09-23T05:10:04;7.57;;;2.50;;
61036;SDS011;57313;47.040;15.498;2022-09-23T05:12:33;8.15;;;2.75;;
61036;SDS011;57313;47.040;15.498;2022-09-23T05:15:00;7.70;;;2.92;;
61036;SDS011;57313;47.040;15.498;2022-09-23T05:17:30;9.98;;;3.00;;
61036;SDS011;57313;47.040;15.498;2022-09-23T05:19:58;8.95;;;2.65;;
61036;SDS011;57313;47.040;15.498;2022-09-23T05:22:25;8.32;;;3.10;;
61036;SDS011;57313;47.040;15.498;2022-09-23T05:24:56;6.60;;;2.60;;
61036;SDS011;57313;47.040;15.498;2022-09-23T05:27:24;7.60;;;2.92;;
61036;SDS011;57313;47.040;15.498;2022-09-23T05:29:52;6.88;;;2.65;;
61036;SDS011;57313;47.040;15.498;2022-09-23T05:32:19;6.35;;;2.40;;
61036;SDS011;57313;47.040;15.498;2022-09-23T05:34:50;6.97;;;2.85;;
61036;SDS011;57313;47.040;15.498;2022-09-23T05:37:17;7.38;;;2.97;;
61036;SDS011;57313;47.040;15.498;2022-09-23T05:39:45;10.60;;;3.63;;
61036;SDS011;57313;47.040;15.498;2022-09-23T05:42:13;9.88;;;3.95;;
61036;SDS011;57313;47.040;15.498;2022-09-23T05:44:42;10.68;;;4.43;;
61036;SDS011;57313;47.040;15.498;2022-09-23T05:47:10;12.27;;;5.93;;
61036;SDS011;57313;47.040;15.498;2022-09-23T05:49:38;17.75;;;7.15;;
61036;SDS011;57313;47.040;15.498;2022-09-23T05:52:26;13.30;;;6.25;;
61036;SDS011;57313;47.040;15.498;2022-09-23T05:54:54;14.27;;;5.00;;
61036;SDS011;57313;47.040;15.498;2022-09-23T05:57:22;10.23;;;3.92;;
61036;SDS011;57313;47.040;15.498;2022-09-23T05:59:50;10.07;;;4.10;;
61036;SDS011;57313;47.040;15.498;2022-09-23T06:02:17;11.75;;;4.32;;
61036;SDS011;57313;47.040;15.498;2022-09-23T06:04:45;11.32;;;4.22;;
61036;SDS011;57313;47.040;15.498;2022-09-23T06:07:13;12.18;;;4.75;;
61036;SDS011;57313;47.040;15.498;2022-09-23T06:09:42;11.85;;;4.45;;
61036;SDS011;57313;47.040;15.498;2022-09-23T06:12:09;11.73;;;3.63;;
61036;SDS011;57313;47.040;15.498;2022-09-23T06:14:37;10.15;;;4.03;;
61036;SDS011;57313;47.040;15.498;2022-09-23T06:17:04;12.77;;;4.30;;
61036;SDS011;57313;47.040;15.498;2022-09-23T06:19:32;10.50;;;4.07;;
61036;SDS011;57313;47.040;15.498;2022-09-23T06:21:59;9.55;;;3.75;;
61036;SDS011;57313;47.040;15.498;2022-09-23T06:24:26;8.10;;;3.55;;
61036;SDS011;57313;47.040;15.498;2022-09-23T06:26:58;8.07;;;3.53;;
61036;SDS011;57313;47.040;15.498;2022-09-23T06:29:25;8.85;;;3.72;;
61036;SDS011;57313;47.040;15.498;2022-09-23T06:31:52;9.40;;;3.67;;
61036;SDS011;57313;47.040;15.498;2022-09-23T06:34:19;8.23;;;3.08;;
61036;SDS011;57313;47.040;15.498;2022-09-23T06:36:47;9.52;;;3.80;;
61036;SDS011;57313;47.040;15.498;2022-09-23T06:39:15;9.00;;;4.15;;
61036;SDS011;57313;47.040;15.498;2022-09-23T06:41:42;12.45;;;4.30;;
61036;SDS011;57313;47.040;15.498;2022-09-23T06:44:12;11.82;;;3.97;;
61036;SDS011;57313;47.040;15.498;2022-09-23T06:46:39;13.13;;;3.88;;
61036;SDS011;57313;47.040;15.498;2022-09-23T06:49:07;10.00;;;3.60;;
61036;SDS011;57313;47.040;15.498;2022-09-23T06:51:34;7.30;;;3.22;;
61036;SDS011;57313;47.040;15.498;2022-09-23T06:54:01;8.73;;;3.85;;
61036;SDS011;57313;47.040;15.498;2022-09-23T06:56:29;8.60;;;3.90;;
61036;SDS011;57313;47.040;15.498;2022-09-23T06:59:01;14.65;;;4.25;;
61036;SDS011;57313;47.040;15.498;2022-09-23T07:01:30;11.48;;;4.35;;
61036;SDS011;57313;47.040;15.498;2022-09-23T07:03:57;9.65;;;3.95;;
61036;SDS011;57313;47.040;15.498;2022-09-23T07:06:25;9.98;;;3.92;;
61036;SDS011;57313;47.040;15.498;2022-09-23T07:08:52;11.98;;;3.83;;
61036;SDS011;57313;47.040;15.498;2022-09-23T07:11:19;11.32;;;4.25;;
61036;SDS011;57313;47.040;15.498;2022-09-23T07:13:46;11.65;;;3.92;;
61036;SDS011;57313;47.040;15.498;2022-09-23T07:16:13;8.88;;;3.45;;
61036;SDS011;57313;47.040;15.498;2022-09-23T07:18:42;10.90;;;4.13;;
61036;SDS011;57313;47.040;15.498;2022-09-23T07:21:10;14.68;;;4.43;;
61036;SDS011;57313;47.040;15.498;2022-09-23T07:23:39;9.05;;;3.40;;
61036;SDS011;57313;47.040;15.498;2022-09-23T07:26:07;12.30;;;4.88;;
61036;SDS011;57313;47.040;15.498;2022-09-23T07:28:35;10.07;;;3.70;;
61036;SDS011;57313;47.040;15.498;2022-09-23T07:31:04;10.45;;;4.22;;
61036;SDS011;57313;47.040;15.498;2022-09-23T07:33:33;10.13;;;3.70;;
61036;SDS011;57313;47.040;15.498;2022-09-23T07:36:09;12.48;;;4.85;;
61036;SDS011;57313;47.040;15.498;2022-09-23T07:38:38;10.07;;;4.35;;
61036;SDS011;57313;47.040;15.498;2022-09-23T07:41:11;16.45;;;4.70;;
61036;SDS011;57313;47.040;15.498;2022-09-23T07:43:40;9.88;;;4.10;;
61036;SDS011;57313;47.040;15.498;2022-09-23T07:46:08;12.52;;;4.75;;
61036;SDS011;57313;47.040;15.498;2022-09-23T07:48:37;15.00;;;4.07;;
61036;SDS011;57313;47.040;15.498;2022-09-23T07:51:07;12.10;;;4.10;;
61036;SDS011;57313;47.040;15.498;2022-09-23T07:53:35;9.85;;;4.20;;
61036;SDS011;57313;47.040;15.498;2022-09-23T07:56:03;12.60;;;3.80;;
61036;SDS011;57313;47.040;15.498;2022-09-23T07:58:32;11.25;;;3.95;;
61036;SDS011;57313;47.040;15.498;2022-09-23T08:01:00;11.48;;;3.50;;
61036;SDS011;57313;47.040;15.498;2022-09-23T08:03:29;12.27;;;4.00;;
61036;SDS011;57313;47.040;15.498;2022-09-23T08:06:02;9.20;;;3.90;;
61036;SDS011;57313;47.040;15.498;2022-09-23T08:08:32;8.25;;;2.90;;
61036;SDS011;57313;47.040;15.498;2022-09-23T08:10:59;8.02;;;2.80;;
61036;SDS011;57313;47.040;15.498;2022-09-23T08:13:27;8.27;;;3.08;;
61036;SDS011;57313;47.040;15.498;2022-09-23T08:15:54;12.15;;;3.38;;
61036;SDS011;57313;47.040;15.498;2022-09-23T08:18:22;8.13;;;3.13;;
61036;SDS011;57313;47.040;15.498;2022-09-23T08:20:50;7.75;;;2.80;;
61036;SDS011;57313;47.040;15.498;2022-09-23T08:23:17;7.38;;;2.95;;
61036;SDS011;57313;47.040;15.498;2022-09-23T08:25:46;8.88;;;2.95;;
61036;SDS011;57313;47.040;15.498;2022-09-23T08:28:13;8.13;;;2.92;;
61036;SDS011;57313;47.040;15.498;2022-09-23T08:30:42;7.32;;;2.80;;
61036;SDS011;57313;47.040;15.498;2022-09-23T08:33:09;8.55;;;3.05;;
61036;SDS011;57313;47.040;15.498;2022-09-23T08:35:37;6.90;;;2.45;;
61036;SDS011;57313;47.040;15.498;2022-09-23T08:38:05;9.02;;;3.00;;
61036;SDS011;57313;47.040;15.498;2022-09-23T08:40:33;8.00;;;2.85;;
61036;SDS011;57313;47.040;15.498;2022-09-23T08:43:03;6.63;;;2.42;;
61036;SDS011;57313;47.040;15.498;2022-09-23T08:45:31;7.60;;;3.05;;
61036;SDS011;57313;47.040;15.498;2022-09-23T08:48:02;7.97;;;2.97;;
61036;SDS011;57313;47.040;15.498;2022-09-23T08:50:39;8.35;;;2.30;;
61036;SDS011;57313;47.040;15.498;2022-09-23T08:53:10;6.53;;;2.33;;
61036;SDS011;57313;47.040;15.498;2022-09-23T08:55:45;7.80;;;2.83;;
61036;SDS011;57313;47.040;15.498;2022-09-23T08:58:22;8.15;;;3.53;;
61036;SDS011;57313;47.040;15.498;2022-09-23T09:00:58;8.18;;;2.97;;
61036;SDS011;57313;47.040;15.498;2022-09-23T09:03:34;8.10;;;3.05;;
61036;SDS011;57313;47.040;15.498;2022-09-23T09:06:07;7.55;;;2.92;;
61036;SDS011;57313;47.040;15.498;2022-09-23T09:08:41;7.30;;;2.42;;
61036;SDS011;57313;47.040;15.498;2022-09-23T09:11:12;7.47;;;2.80;;
61036;SDS011;57313;47.040;15.498;2022-09-23T09:13:45;9.32;;;2.97;;
61036;SDS011;57313;47.040;15.498;2022-09-23T09:16:24;13.20;;;3.00;;
61036;SDS011;57313;47.040;15.498;2022-09-23T09:19:34;10.82;;;2.78;;
61036;SDS011;57313;47.040;15.498;2022-09-23T09:22:12;7.38;;;2.90;;
61036;SDS011;57313;47.040;15.498;2022-09-23T09:24:57;7.45;;;2.78;;
61036;SDS011;57313;47.040;15.498;2022-09-23T09:27:30;8.10;;;2.65;;
61036;SDS011;57313;47.040;15.498;2022-09-23T09:30:00;6.13;;;2.22;;
61036;SDS011;57313;47.040;15.498;2022-09-23T09:32:30;6.82;;;2.60;;
61036;SDS011;57313;47.040;15.498;2022-09-23T09:35:06;7.65;;;2.70;;
61036;SDS011;57313;47.040;15.498;2022-09-23T09:37:45;7.95;;;2.65;;
61036;SDS011;57313;47.040;15.498;2022-09-23T09:40:14;9.02;;;2.25;;
61036;SDS011;57313;47.040;15.498;2022-09-23T09:42:45;6.43;;;2.10;;
61036;SDS011;57313;47.040;15.498;2022-09-23T09:45:16;7.40;;;2.55;;
61036;SDS011;57313;47.040;15.498;2022-09-23T09:47:53;8.18;;;2.58;;
61036;SDS011;57313;47.040;15.498;2022-09-23T09:53:15;8.43;;;2.45;;
61036;SDS011;57313;47.040;15.498;2022-09-23T09:55:52;6.78;;;2.28;;
61036;SDS011;57313;47.040;15.498;2022-09-23T09:58:32;6.82;;;2.35;;
61036;SDS011;57313;47.040;15.498;2022-09-23T10:01:03;7.00;;;2.40;;
61036;SDS011;57313;47.040;15.498;2022-09-23T10:03:32;9.10;;;2.40;;
61036;SDS011;57313;47.040;15.498;2022-09-23T10:06:14;7.40;;;2.40;;
61036;SDS011;57313;47.040;15.498;2022-09-23T10:11:39;6.15;;;2.10;;
61036;SDS011;57313;47.040;15.498;2022-09-23T10:14:11;7.63;;;2.40;;
61036;SDS011;57313;47.040;15.498;2022-09-23T10:16:41;6.35;;;2.20;;
61036;SDS011;57313;47.040;15.498;2022-09-23T10:19:13;6.82;;;2.30;;
61036;SDS011;57313;47.040;15.498;2022-09-23T10:21:50;6.10;;;2.00;;
61036;SDS011;57313;47.040;15.498;2022-09-23T10:24:20;7.47;;;2.28;;
61036;SDS011;57313;47.040;15.498;2022-09-23T10:26:51;6.00;;;2.00;;
61036;SDS011;57313;47.040;15.498;2022-09-23T10:29:23;5.53;;;2.10;;
61036;SDS011;57313;47.040;15.498;2022-09-23T10:34:47;8.55;;;2.25;;
61036;SDS011;57313;47.040;15.498;2022-09-23T10:37:26;6.38;;;2.10;;
61036;SDS011;57313;47.040;15.498;2022-09-23T10:40:00;6.05;;;1.92;;
61036;SDS011;57313;47.040;15.498;2022-09-23T10:42:52;5.65;;;1.92;;
61036;SDS011;57313;47.040;15.498;2022-09-23T10:48:01;5.72;;;1.98;;
61036;SDS011;57313;47.040;15.498;2022-09-23T10:50:35;4.85;;;1.80;;
61036;SDS011;57313;47.040;15.498;2022-09-23T10:53:11;5.65;;;1.98;;
61036;SDS011;57313;47.040;15.498;2022-09-23T11:01:32;5.13;;;1.70;;
61036;SDS011;57313;47.040;15.498;2022-09-23T11:04:13;4.60;;;1.52;;
61036;SDS011;57313;47.040;15.498;2022-09-23T11:06:55;4.95;;;1.60;;
61036;SDS011;57313;47.040;15.498;2022-09-23T11:09:37;5.57;;;1.92;;
61036;SDS011;57313;47.040;15.498;2022-09-23T11:12:13;5.65;;;1.77;;
61036;SDS011;57313;47.040;15.498;2022-09-23T11:14:55;5.45;;;1.77;;
61036;SDS011;57313;47.040;15.498;2022-09-23T11:17:42;5.32;;;1.88;;
61036;SDS011;57313;47.040;15.498;2022-09-23T11:20:28;5.63;;;1.85;;
61036;SDS011;57313;47.040;15.498;2022-09-23T11:26:12;5.28;;;1.63;;
61036;SDS011;57313;47.040;15.498;2022-09-23T11:28:59;5.85;;;1.73;;
61036;SDS011;57313;47.040;15.498;2022-09-23T11:31:36;5.32;;;1.67;;
61036;SDS011;57313;47.040;15.498;2022-09-23T11:34:15;5.55;;;1.60;;
61036;SDS011;57313;47.040;15.498;2022-09-23T11:36:58;5.22;;;1.60;;
61036;SDS011;57313;47.040;15.498;2022-09-23T11:39:31;5.72;;;1.80;;
61036;SDS011;57313;47.040;15.498;2022-09-23T11:42:03;4.88;;;1.65;;
61036;SDS011;57313;47.040;15.498;2022-09-23T11:44:37;3.65;;;1.33;;
61036;SDS011;57313;47.040;15.498;2022-09-23T11:47:09;4.72;;;1.67;;
61036;SDS011;57313;47.040;15.498;2022-09-23T11:49:45;3.72;;;1.30;;
61036;SDS011;57313;47.040;15.498;2022-09-23T11:52:19;5.72;;;1.70;;
61036;SDS011;57313;47.040;15.498;2022-09-23T11:54:52;4.30;;;1.58;;
61036;SDS011;57313;47.040;15.498;2022-09-23T11:57:23;4.93;;;1.48;;
61036;SDS011;57313;47.040;15.498;2022-09-23T12:00:12;4.45;;;1.30;;
61036;SDS011;57313;47.040;15.498;2022-09-23T12:02:47;4.55;;;1.50;;
61036;SDS011;57313;47.040;15.498;2022-09-23T12:05:32;4.63;;;1.50;;
61036;SDS011;57313;47.040;15.498;2022-09-23T12:08:09;4.20;;;1.35;;
61036;SDS011;57313;47.040;15.498;2022-09-23T12:10:44;4.05;;;1.42;;
61036;SDS011;57313;47.040;15.498;2022-09-23T12:13:23;3.70;;;1.20;;
61036;SDS011;57313;47.040;15.498;2022-09-23T12:16:06;2.75;;;1.08;;
61036;SDS011;57313;47.040;15.498;2022-09-23T12:18:55;4.07;;;1.20;;
61036;SDS011;57313;47.040;15.498;2022-09-23T12:21:37;4.10;;;1.10;;
61036;SDS011;57313;47.040;15.498;2022-09-23T12:24:25;3.85;;;1.38;;
61036;SDS011;57313;47.040;15.498;2022-09-23T12:27:05;4.30;;;1.30;;
61036;SDS011;57313;47.040;15.498;2022-09-23T12:29:37;3.97;;;1.30;;
61036;SDS011;57313;47.040;15.498;2022-09-23T12:32:06;4.40;;;1.30;;
61036;SDS011;57313;47.040;15.498;2022-09-23T12:34:44;4.90;;;1.40;;
61036;SDS011;57313;47.040;15.498;2022-09-23T12:37:18;3.55;;;1.40;;
61036;SDS011;57313;47.040;15.498;2022-09-23T12:39:52;3.92;;;1.42;;
61036;SDS011;57313;47.040;15.498;2022-09-23T12:42:25;4.32;;;1.50;;
61036;SDS011;57313;47.040;15.498;2022-09-23T12:47:57;3.67;;;1.25;;
61036;SDS011;57313;47.040;15.498;2022-09-23T12:56:21;4.28;;;1.40;;
61036;SDS011;57313;47.040;15.498;2022-09-23T13:01:50;3.38;;;1.23;;
61036;SDS011;57313;47.040;15.498;2022-09-23T13:07:10;5.07;;;1.50;;
61036;SDS011;57313;47.040;15.498;2022-09-23T13:09:41;5.97;;;1.83;;
61036;SDS011;57313;47.040;15.498;2022-09-23T13:12:15;4.05;;;1.20;;
61036;SDS011;57313;47.040;15.498;2022-09-23T13:14:45;4.40;;;1.60;;
61036;SDS011;57313;47.040;15.498;2022-09-23T13:17:25;3.85;;;1.30;;
61036;SDS011;57313;47.040;15.498;2022-09-23T13:19:59;3.40;;;1.20;;
61036;SDS011;57313;47.040;15.498;2022-09-23T13:22:39;4.78;;;1.52;;
61036;SDS011;57313;47.040;15.498;2022-09-23T13:25:25;5.45;;;1.40;;
61036;SDS011;57313;47.040;15.498;2022-09-23T13:27:57;4.15;;;1.42;;
61036;SDS011;57313;47.040;15.498;2022-09-23T13:30:27;5.15;;;1.60;;
61036;SDS011;57313;47.040;15.498;2022-09-23T13:33:00;4.68;;;1.40;;
61036;SDS011;57313;47.040;15.498;2022-09-23T13:35:32;4.03;;;1.33;;
61036;SDS011;57313;47.040;15.498;2022-09-23T13:38:08;5.13;;;1.35;;
61036;SDS011;57313;47.040;15.498;2022-09-23T13:40:36;4.53;;;1.50;;
61036;SDS011;57313;47.040;15.498;2022-09-23T13:43:08;3.85;;;1.33;;
61036;SDS011;57313;47.040;15.498;2022-09-23T13:45:39;3.25;;;1.20;;
61036;SDS011;57313;47.040;15.498;2022-09-23T13:48:10;5.00;;;1.40;;
61036;SDS011;57313;47.040;15.498;2022-09-23T13:50:41;6.45;;;1.70;;
61036;SDS011;57313;47.040;15.498;2022-09-23T13:53:11;4.05;;;1.30;;
61036;SDS011;57313;47.040;15.498;2022-09-23T13:55:46;5.53;;;1.67;;
61036;SDS011;57313;47.040;15.498;2022-09-23T13:58:27;3.53;;;1.30;;
61036;SDS011;57313;47.040;15.498;2022-09-23T14:00:56;5.05;;;1.40;;
61036;SDS011;57313;47.040;15.498;2022-09-23T14:03:25;4.68;;;1.45;;
61036;SDS011;57313;47.040;15.498;2022-09-23T14:06:03;3.70;;;1.23;;
61036;SDS011;57313;47.040;15.498;2022-09-23T14:08:33;4.18;;;1.40;;
61036;SDS011;57313;47.040;15.498;2022-09-23T14:11:01;4.53;;;1.60;;
61036;SDS011;57313;47.040;15.498;2022-09-23T14:13:30;5.38;;;1.67;;
61036;SDS011;57313;47.040;15.498;2022-09-23T14:16:01;4.03;;;1.33;;
61036;SDS011;57313;47.040;15.498;2022-09-23T14:18:31;3.55;;;1.30;;
61036;SDS011;57313;47.040;15.498;2022-09-23T14:21:01;5.50;;;1.23;;
61036;SDS011;57313;47.040;15.498;2022-09-23T14:23:28;4.82;;;1.30;;
61036;SDS011;57313;47.040;15.498;2022-09-23T14:25:56;3.85;;;1.20;;
61036;SDS011;57313;47.040;15.498;2022-09-23T14:28:25;5.60;;;1.50;;
61036;SDS011;57313;47.040;15.498;2022-09-23T14:30:54;3.95;;;1.35;;
61036;SDS011;57313;47.040;15.498;2022-09-23T14:33:24;4.07;;;1.13;;
61036;SDS011;57313;47.040;15.498;2022-09-23T14:35:54;3.72;;;1.30;;
61036;SDS011;57313;47.040;15.498;2022-09-23T14:38:27;4.47;;;1.40;;
61036;SDS011;57313;47.040;15.498;2022-09-23T14:40:57;4.93;;;1.40;;
61036;SDS011;57313;47.040;15.498;2022-09-23T14:43:25;4.88;;;1.60;;
61036;SDS011;57313;47.040;15.498;2022-09-23T14:45:55;4.90;;;1.20;;
61036;SDS011;57313;47.040;15.498;2022-09-23T14:48:24;4.93;;;1.42;;
61036;SDS011;57313;47.040;15.498;2022-09-23T14:50:54;4.07;;;1.23;;
61036;SDS011;57313;47.040;15.498;2022-09-23T14:53:34;4.07;;;1.38;;
61036;SDS011;57313;47.040;15.498;2022-09-23T14:56:14;6.75;;;1.50;;
61036;SDS011;57313;47.040;15.498;2022-09-23T14:58:52;4.47;;;1.38;;
61036;SDS011;57313;47.040;15.498;2022-09-23T15:01:36;4.30;;;1.20;;
61036;SDS011;57313;47.040;15.498;2022-09-23T15:04:14;4.32;;;1.25;;
61036;SDS011;57313;47.040;15.498;2022-09-23T15:06:48;5.82;;;1.33;;
61036;SDS011;57313;47.040;15.498;2022-09-23T15:09:20;3.28;;;1.15;;
61036;SDS011;57313;47.040;15.498;2022-09-23T15:11:51;4.07;;;1.23;;
61036;SDS011;57313;47.040;15.498;2022-09-23T15:14:19;5.40;;;1.48;;
61036;SDS011;57313;47.040;15.498;2022-09-23T15:17:10;4.88;;;1.73;;
61036;SDS011;57313;47.040;15.498;2022-09-23T15:19:42;3.30;;;1.20;;
61036;SDS011;57313;47.040;15.498;2022-09-23T15:22:10;10.73;;;3.20;;
61036;SDS011;57313;47.040;15.498;2022-09-23T15:24:40;22.10;;;6.30;;
61036;SDS011;57313;47.040;15.498;2022-09-23T15:27:15;39.50;;;11.98;;
61036;SDS011;57313;47.040;15.498;2022-09-23T15:29:51;4.85;;;1.60;;
61036;SDS011;57313;47.040;15.498;2022-09-23T15:32:20;6.80;;;2.00;;
61036;SDS011;57313;47.040;15.498;2022-09-23T15:34:48;12.15;;;3.95;;
61036;SDS011;57313;47.040;15.498;2022-09-23T15:37:15;22.90;;;5.95;;
61036;SDS011;57313;47.040;15.498;2022-09-23T15:39:43;25.15;;;6.47;;